sensor_id;sensor_type;location;lat;lon;timestamp;temperature;humidity
8459;DHT22;4266;48.816;9.154;2023-04-01T00:00:45;8.30;99.90
8459;DHT22;4266;48.816;9.154;2023-04-01T00:03:11;8.30;99.90
8459;DHT22;4266;48.816;9.154;2023-04-01T00:05:37;8.30;99.90
8459;DHT22;4266;48.816;9.154;2023-04-01T00:08:02;8.30;99.90
8459;DHT22;4266;48.816;9.154;2023-04-01T00:10:28;8.40;99.90
8459;DHT22;4266;48.816;9.154;2023-04-01T00:12:54;8.40;99.90
8459;DHT22;4266;48.816;9.154;2023-04-01T00:15:20;8.50;99.90
8459;DHT22;4266;48.816;9.154;2023-04-01T00:17:46;8.40;99.90
8459;DHT22;4266;48.816;9.154;2023-04-01T00:20:12;8.40;99.90
8459;DHT22;4266;48.816;9.154;2023-04-01T00:22:38;8.50;99.90
8459;DHT22;4266;48.816;9.154;2023-04-01T00:25:04;8.50;99.90
8459;DHT22;4266;48.816;9.154;2023-04-01T00:27:30;8.50;99.90
8459;DHT22;4266;48.816;9.154;2023-04-01T00:29:56;8.50;99.90
8459;DHT22;4266;48.816;9.154;2023-04-01T00:32:22;8.40;99.90
8459;DHT22;4266;48.816;9.154;2023-04-01T00:34:50;8.40;99.90
8459;DHT22;4266;48.816;9.154;2023-04-01T00:37:13;8.40;99.90
8459;DHT22;4266;48.816;9.154;2023-04-01T00:39:39;8.40;99.90
8459;DHT22;4266;48.816;9.154;2023-04-01T00:42:05;8.40;99.90
8459;DHT22;4266;48.816;9.154;2023-04-01T00:44:32;8.40;99.90
8459;DHT22;4266;48.816;9.154;2023-04-01T00:46:57;8.50;99.90
8459;DHT22;4266;48.816;9.154;2023-04-01T00:49:23;8.50;99.90
8459;DHT22;4266;48.816;9.154;2023-04-01T00:51:49;8.60;99.90
8459;DHT22;4266;48.816;9.154;2023-04-01T00:54:14;8.70;99.90
8459;DHT22;4266;48.816;9.154;2023-04-01T00:56:41;8.60;99.90
8459;DHT22;4266;48.816;9.154;2023-04-01T00:59:07;8.60;99.90
8459;DHT22;4266;48.816;9.154;2023-04-01T01:01:32;8.70;99.90
8459;DHT22;4266;48.816;9.154;2023-04-01T01:03:58;8.70;99.90
8459;DHT22;4266;48.816;9.154;2023-04-01T01:06:35;8.70;99.90
8459;DHT22;4266;48.816;9.154;2023-04-01T01:09:06;8.60;99.90
8459;DHT22;4266;48.816;9.154;2023-04-01T01:11:33;8.60;99.90
8459;DHT22;4266;48.816;9.154;2023-04-01T01:13:58;8.60;99.90
8459;DHT22;4266;48.816;9.154;2023-04-01T01:16:27;8.60;99.90
8459;DHT22;4266;48.816;9.154;2023-04-01T01:19:19;8.60;99.90
8459;DHT22;4266;48.816;9.154;2023-04-01T01:21:55;8.60;99.90
8459;DHT22;4266;48.816;9.154;2023-04-01T01:24:39;8.60;99.90
8459;DHT22;4266;48.816;9.154;2023-04-01T01:27:04;8.60;99.90
8459;DHT22;4266;48.816;9.154;2023-04-01T01:29:43;8.70;99.90
8459;DHT22;4266;48.816;9.154;2023-04-01T01:35:20;8.60;99.90
8459;DHT22;4266;48.816;9.154;2023-04-01T01:37:44;8.60;99.90
8459;DHT22;4266;48.816;9.154;2023-04-01T01:40:10;8.50;99.90
8459;DHT22;4266;48.816;9.154;2023-04-01T01:42:37;8.50;99.90
8459;DHT22;4266;48.816;9.154;2023-04-01T01:45:02;8.50;99.90
8459;DHT22;4266;48.816;9.154;2023-04-01T01:47:28;8.50;99.90
8459;DHT22;4266;48.816;9.154;2023-04-01T01:49:54;8.40;99.90
8459;DHT22;4266;48.816;9.154;2023-04-01T01:52:19;8.40;99.90
8459;DHT22;4266;48.816;9.154;2023-04-01T01:54:52;8.40;99.90
8459;DHT22;4266;48.816;9.154;2023-04-01T01:57:19;8.40;99.90
8459;DHT22;4266;48.816;9.154;2023-04-01T01:59:43;8.30;99.90
8459;DHT22;4266;48.816;9.154;2023-04-01T02:02:09;8.30;99.90
8459;DHT22;4266;48.816;9.154;2023-04-01T02:04:36;8.30;99.90
8459;DHT22;4266;48.816;9.154;2023-04-01T02:07:02;8.30;99.90
8459;DHT22;4266;48.816;9.154;2023-04-01T02:09:28;8.20;99.90
8459;DHT22;4266;48.816;9.154;2023-04-01T02:11:59;8.20;99.90
8459;DHT22;4266;48.816;9.154;2023-04-01T02:14:26;8.20;99.90
8459;DHT22;4266;48.816;9.154;2023-04-01T02:16:55;8.20;99.90
8459;DHT22;4266;48.816;9.154;2023-04-01T02:19:20;8.20;99.90
8459;DHT22;4266;48.816;9.154;2023-04-01T02:21:46;8.20;99.90
8459;DHT22;4266;48.816;9.154;2023-04-01T02:24:13;8.20;99.90
8459;DHT22;4266;48.816;9.154;2023-04-01T02:26:38;8.30;99.90
8459;DHT22;4266;48.816;9.154;2023-04-01T02:29:05;8.20;99.90
8459;DHT22;4266;48.816;9.154;2023-04-01T02:31:30;8.20;99.90
8459;DHT22;4266;48.816;9.154;2023-04-01T02:33:57;8.30;99.90
8459;DHT22;4266;48.816;9.154;2023-04-01T02:36:23;8.20;99.90
8459;DHT22;4266;48.816;9.154;2023-04-01T02:38:48;8.20;99.90
8459;DHT22;4266;48.816;9.154;2023-04-01T02:41:14;8.10;99.90
8459;DHT22;4266;48.816;9.154;2023-04-01T02:43:40;8.10;99.90
8459;DHT22;4266;48.816;9.154;2023-04-01T02:46:06;8.00;99.90
8459;DHT22;4266;48.816;9.154;2023-04-01T02:48:33;8.00;99.90
8459;DHT22;4266;48.816;9.154;2023-04-01T02:50:59;7.90;99.90
8459;DHT22;4266;48.816;9.154;2023-04-01T02:53:25;7.90;99.90
8459;DHT22;4266;48.816;9.154;2023-04-01T02:55:50;7.90;99.90
8459;DHT22;4266;48.816;9.154;2023-04-01T02:58:16;7.90;99.90
8459;DHT22;4266;48.816;9.154;2023-04-01T03:00:42;8.00;99.90
8459;DHT22;4266;48.816;9.154;2023-04-01T03:03:08;7.90;99.90
8459;DHT22;4266;48.816;9.154;2023-04-01T03:05:33;7.90;99.90
8459;DHT22;4266;48.816;9.154;2023-04-01T03:07:59;7.90;99.90
8459;DHT22;4266;48.816;9.154;2023-04-01T03:10:25;7.90;99.90
8459;DHT22;4266;48.816;9.154;2023-04-01T03:12:51;8.00;99.90
8459;DHT22;4266;48.816;9.154;2023-04-01T03:15:16;8.00;99.90
8459;DHT22;4266;48.816;9.154;2023-04-01T03:17:42;8.00;99.90
8459;DHT22;4266;48.816;9.154;2023-04-01T03:20:09;8.00;99.90
8459;DHT22;4266;48.816;9.154;2023-04-01T03:22:34;8.00;99.90
8459;DHT22;4266;48.816;9.154;2023-04-01T03:25:01;7.90;99.90
8459;DHT22;4266;48.816;9.154;2023-04-01T03:27:27;7.90;99.90
8459;DHT22;4266;48.816;9.154;2023-04-01T03:29:53;7.80;99.90
8459;DHT22;4266;48.816;9.154;2023-04-01T03:32:19;7.80;99.90
8459;DHT22;4266;48.816;9.154;2023-04-01T03:34:44;7.80;99.90
8459;DHT22;4266;48.816;9.154;2023-04-01T03:37:11;7.90;99.90
8459;DHT22;4266;48.816;9.154;2023-04-01T03:39:36;7.90;99.90
8459;DHT22;4266;48.816;9.154;2023-04-01T03:42:02;7.90;99.90
8459;DHT22;4266;48.816;9.154;2023-04-01T03:44:31;7.90;99.90
8459;DHT22;4266;48.816;9.154;2023-04-01T03:46:56;8.00;99.90
8459;DHT22;4266;48.816;9.154;2023-04-01T03:49:22;8.00;99.90
8459;DHT22;4266;48.816;9.154;2023-04-01T03:51:48;7.90;99.90
8459;DHT22;4266;48.816;9.154;2023-04-01T03:54:14;7.90;99.90
8459;DHT22;4266;48.816;9.154;2023-04-01T03:56:39;8.00;99.90
8459;DHT22;4266;48.816;9.154;2023-04-01T03:59:06;7.80;99.90
8459;DHT22;4266;48.816;9.154;2023-04-01T04:01:31;7.80;99.90
8459;DHT22;4266;48.816;9.154;2023-04-01T04:03:57;7.70;99.90
8459;DHT22;4266;48.816;9.154;2023-04-01T04:06:23;7.70;99.90
8459;DHT22;4266;48.816;9.154;2023-04-01T04:08:48;7.70;99.90
8459;DHT22;4266;48.816;9.154;2023-04-01T04:11:14;7.70;99.90
8459;DHT22;4266;48.816;9.154;2023-04-01T04:13:39;7.70;99.90
8459;DHT22;4266;48.816;9.154;2023-04-01T04:16:05;7.80;99.90
8459;DHT22;4266;48.816;9.154;2023-04-01T04:18:31;7.80;99.90
8459;DHT22;4266;48.816;9.154;2023-04-01T04:20:57;7.90;99.90
8459;DHT22;4266;48.816;9.154;2023-04-01T04:23:23;7.90;99.90
8459;DHT22;4266;48.816;9.154;2023-04-01T04:26:03;7.90;99.90
8459;DHT22;4266;48.816;9.154;2023-04-01T04:28:28;7.80;99.90
8459;DHT22;4266;48.816;9.154;2023-04-01T04:30:54;7.80;99.90
8459;DHT22;4266;48.816;9.154;2023-04-01T04:33:20;7.70;99.90
8459;DHT22;4266;48.816;9.154;2023-04-01T04:35:46;7.70;99.90
8459;DHT22;4266;48.816;9.154;2023-04-01T04:38:12;7.70;99.90
8459;DHT22;4266;48.816;9.154;2023-04-01T04:40:38;7.70;99.90
8459;DHT22;4266;48.816;9.154;2023-04-01T04:43:03;7.70;99.90
8459;DHT22;4266;48.816;9.154;2023-04-01T04:45:29;7.60;99.90
8459;DHT22;4266;48.816;9.154;2023-04-01T04:47:55;7.70;99.90
8459;DHT22;4266;48.816;9.154;2023-04-01T04:50:22;7.60;99.90
8459;DHT22;4266;48.816;9.154;2023-04-01T04:52:49;7.60;99.90
8459;DHT22;4266;48.816;9.154;2023-04-01T04:55:14;7.60;99.90
8459;DHT22;4266;48.816;9.154;2023-04-01T04:57:40;7.70;99.90
8459;DHT22;4266;48.816;9.154;2023-04-01T05:00:07;7.60;99.90
8459;DHT22;4266;48.816;9.154;2023-04-01T05:02:33;7.60;99.90
8459;DHT22;4266;48.816;9.154;2023-04-01T05:04:59;7.60;99.90
8459;DHT22;4266;48.816;9.154;2023-04-01T05:07:24;7.60;99.90
8459;DHT22;4266;48.816;9.154;2023-04-01T05:09:50;7.60;99.90
8459;DHT22;4266;48.816;9.154;2023-04-01T05:12:16;7.60;99.90
8459;DHT22;4266;48.816;9.154;2023-04-01T05:14:42;7.60;99.90
8459;DHT22;4266;48.816;9.154;2023-04-01T05:17:11;7.60;99.90
8459;DHT22;4266;48.816;9.154;2023-04-01T05:19:36;7.60;99.90
8459;DHT22;4266;48.816;9.154;2023-04-01T05:22:02;7.60;99.90
8459;DHT22;4266;48.816;9.154;2023-04-01T05:24:28;7.60;99.90
8459;DHT22;4266;48.816;9.154;2023-04-01T05:26:54;7.60;99.90
8459;DHT22;4266;48.816;9.154;2023-04-01T05:29:19;7.60;99.90
8459;DHT22;4266;48.816;9.154;2023-04-01T05:31:45;7.60;99.90
8459;DHT22;4266;48.816;9.154;2023-04-01T05:34:10;7.70;99.90
8459;DHT22;4266;48.816;9.154;2023-04-01T05:36:36;7.80;99.90
8459;DHT22;4266;48.816;9.154;2023-04-01T05:39:02;7.90;99.90
8459;DHT22;4266;48.816;9.154;2023-04-01T05:41:28;8.10;99.90
8459;DHT22;4266;48.816;9.154;2023-04-01T05:43:54;8.10;99.90
8459;DHT22;4266;48.816;9.154;2023-04-01T05:46:21;8.30;99.90
8459;DHT22;4266;48.816;9.154;2023-04-01T05:48:47;8.20;99.90
8459;DHT22;4266;48.816;9.154;2023-04-01T05:51:14;8.40;99.90
8459;DHT22;4266;48.816;9.154;2023-04-01T05:53:39;8.40;99.90
8459;DHT22;4266;48.816;9.154;2023-04-01T05:56:05;8.60;98.60
8459;DHT22;4266;48.816;9.154;2023-04-01T05:58:32;8.70;98.30
8459;DHT22;4266;48.816;9.154;2023-04-01T06:01:00;8.80;97.70
8459;DHT22;4266;48.816;9.154;2023-04-01T06:03:25;8.90;97.30
8459;DHT22;4266;48.816;9.154;2023-04-01T06:05:51;9.10;96.90
8459;DHT22;4266;48.816;9.154;2023-04-01T06:08:18;9.20;96.40
8459;DHT22;4266;48.816;9.154;2023-04-01T06:16:07;9.40;95.90
8459;DHT22;4266;48.816;9.154;2023-04-01T06:18:41;9.50;96.00
8459;DHT22;4266;48.816;9.154;2023-04-01T06:21:12;9.60;95.50
8459;DHT22;4266;48.816;9.154;2023-04-01T06:23:52;9.60;95.50
8459;DHT22;4266;48.816;9.154;2023-04-01T06:28:56;9.80;95.40
8459;DHT22;4266;48.816;9.154;2023-04-01T06:31:32;9.90;95.00
8459;DHT22;4266;48.816;9.154;2023-04-01T06:33:56;10.00;94.00
8459;DHT22;4266;48.816;9.154;2023-04-01T06:36:31;10.20;94.20
8459;DHT22;4266;48.816;9.154;2023-04-01T06:39:14;10.10;93.70
8459;DHT22;4266;48.816;9.154;2023-04-01T06:41:44;9.90;94.70
8459;DHT22;4266;48.816;9.154;2023-04-01T06:46:50;9.90;94.60
8459;DHT22;4266;48.816;9.154;2023-04-01T06:49:34;9.80;94.70
8459;DHT22;4266;48.816;9.154;2023-04-01T06:52:19;9.70;94.80
8459;DHT22;4266;48.816;9.154;2023-04-01T06:54:48;9.70;94.80
8459;DHT22;4266;48.816;9.154;2023-04-01T07:00:00;9.90;94.70
8459;DHT22;4266;48.816;9.154;2023-04-01T07:02:29;9.90;94.70
8459;DHT22;4266;48.816;9.154;2023-04-01T07:04:52;9.80;94.90
8459;DHT22;4266;48.816;9.154;2023-04-01T07:07:37;9.70;94.80
8459;DHT22;4266;48.816;9.154;2023-04-01T07:10:03;9.80;94.90
8459;DHT22;4266;48.816;9.154;2023-04-01T07:12:45;9.90;95.00
8459;DHT22;4266;48.816;9.154;2023-04-01T07:15:17;9.80;95.00
8459;DHT22;4266;48.816;9.154;2023-04-01T07:17:41;9.90;95.00
8459;DHT22;4266;48.816;9.154;2023-04-01T07:20:27;9.80;95.20
8459;DHT22;4266;48.816;9.154;2023-04-01T07:22:54;9.90;95.60
8459;DHT22;4266;48.816;9.154;2023-04-01T07:25:21;9.90;95.40
8459;DHT22;4266;48.816;9.154;2023-04-01T07:27:46;9.80;95.10
8459;DHT22;4266;48.816;9.154;2023-04-01T07:30:14;9.90;95.10
8459;DHT22;4266;48.816;9.154;2023-04-01T07:35:50;9.90;95.60
8459;DHT22;4266;48.816;9.154;2023-04-01T07:41:17;9.80;95.40
8459;DHT22;4266;48.816;9.154;2023-04-01T07:43:42;9.60;95.40
8459;DHT22;4266;48.816;9.154;2023-04-01T07:46:17;9.70;95.70
8459;DHT22;4266;48.816;9.154;2023-04-01T07:48:51;9.70;95.60
8459;DHT22;4266;48.816;9.154;2023-04-01T07:51:21;9.70;95.70
8459;DHT22;4266;48.816;9.154;2023-04-01T07:53:50;9.90;95.90
8459;DHT22;4266;48.816;9.154;2023-04-01T07:56:22;9.90;95.60
8459;DHT22;4266;48.816;9.154;2023-04-01T07:58:52;10.00;95.00
8459;DHT22;4266;48.816;9.154;2023-04-01T08:04:14;10.40;94.60
8459;DHT22;4266;48.816;9.154;2023-04-01T08:06:37;10.40;94.60
8459;DHT22;4266;48.816;9.154;2023-04-01T08:09:22;10.30;94.60
8459;DHT22;4266;48.816;9.154;2023-04-01T08:11:51;10.30;94.60
8459;DHT22;4266;48.816;9.154;2023-04-01T08:14:21;10.30;94.60
8459;DHT22;4266;48.816;9.154;2023-04-01T08:17:02;10.40;94.40
8459;DHT22;4266;48.816;9.154;2023-04-01T08:19:43;10.40;94.50
8459;DHT22;4266;48.816;9.154;2023-04-01T08:22:02;10.50;94.40
8459;DHT22;4266;48.816;9.154;2023-04-01T08:24:35;10.70;94.30
8459;DHT22;4266;48.816;9.154;2023-04-01T08:26:59;10.90;94.20
8459;DHT22;4266;48.816;9.154;2023-04-01T08:29:30;10.90;94.10
8459;DHT22;4266;48.816;9.154;2023-04-01T08:31:55;11.00;94.20
8459;DHT22;4266;48.816;9.154;2023-04-01T08:34:23;11.00;93.90
8459;DHT22;4266;48.816;9.154;2023-04-01T08:36:51;10.70;94.70
8459;DHT22;4266;48.816;9.154;2023-04-01T08:39:20;10.60;95.10
8459;DHT22;4266;48.816;9.154;2023-04-01T08:48:28;10.20;96.70
8459;DHT22;4266;48.816;9.154;2023-04-01T08:50:31;10.00;97.60
8459;DHT22;4266;48.816;9.154;2023-04-01T08:58:32;9.70;99.90
8459;DHT22;4266;48.816;9.154;2023-04-01T09:00:56;9.70;99.90
8459;DHT22;4266;48.816;9.154;2023-04-01T09:03:57;9.70;99.90
8459;DHT22;4266;48.816;9.154;2023-04-01T09:06:20;9.60;99.90
8459;DHT22;4266;48.816;9.154;2023-04-01T09:09:07;9.70;99.90
8459;DHT22;4266;48.816;9.154;2023-04-01T09:14:22;10.00;99.60
8459;DHT22;4266;48.816;9.154;2023-04-01T09:17:24;9.90;99.90
8459;DHT22;4266;48.816;9.154;2023-04-01T09:20:15;10.00;98.60
8459;DHT22;4266;48.816;9.154;2023-04-01T09:22:43;10.20;99.20
8459;DHT22;4266;48.816;9.154;2023-04-01T09:28:03;10.50;97.50
8459;DHT22;4266;48.816;9.154;2023-04-01T09:30:37;11.00;97.30
8459;DHT22;4266;48.816;9.154;2023-04-01T09:33:15;11.30;96.10
8459;DHT22;4266;48.816;9.154;2023-04-01T09:38:23;11.60;94.90
8459;DHT22;4266;48.816;9.154;2023-04-01T09:40:53;11.60;94.80
8459;DHT22;4266;48.816;9.154;2023-04-01T09:43:21;11.30;94.70
8459;DHT22;4266;48.816;9.154;2023-04-01T09:45:48;11.10;95.00
8459;DHT22;4266;48.816;9.154;2023-04-01T09:51:18;10.80;95.50
8459;DHT22;4266;48.816;9.154;2023-04-01T09:54:00;10.80;95.30
8459;DHT22;4266;48.816;9.154;2023-04-01T10:02:21;10.80;94.60
8459;DHT22;4266;48.816;9.154;2023-04-01T10:04:54;10.80;94.60
8459;DHT22;4266;48.816;9.154;2023-04-01T10:07:29;10.60;94.00
8459;DHT22;4266;48.816;9.154;2023-04-01T10:10:19;10.70;94.20
8459;DHT22;4266;48.816;9.154;2023-04-01T10:13:13;10.80;93.80
8459;DHT22;4266;48.816;9.154;2023-04-01T10:15:53;10.90;93.90
8459;DHT22;4266;48.816;9.154;2023-04-01T10:18:25;11.00;93.70
8459;DHT22;4266;48.816;9.154;2023-04-01T10:20:54;11.20;93.10
8459;DHT22;4266;48.816;9.154;2023-04-01T10:23:42;12.40;92.40
8459;DHT22;4266;48.816;9.154;2023-04-01T10:26:20;12.40;92.40
8459;DHT22;4266;48.816;9.154;2023-04-01T10:36:50;11.90;91.60
8459;DHT22;4266;48.816;9.154;2023-04-01T10:39:52;11.70;91.80
8459;DHT22;4266;48.816;9.154;2023-04-01T10:43:03;11.60;92.30
8459;DHT22;4266;48.816;9.154;2023-04-01T10:48:14;11.50;91.70
8459;DHT22;4266;48.816;9.154;2023-04-01T10:53:28;11.40;91.40
8459;DHT22;4266;48.816;9.154;2023-04-01T10:58:53;11.20;91.90
8459;DHT22;4266;48.816;9.154;2023-04-01T11:04:46;11.30;92.20
8459;DHT22;4266;48.816;9.154;2023-04-01T11:07:04;11.40;91.80
8459;DHT22;4266;48.816;9.154;2023-04-01T11:17:58;11.70;91.40
8459;DHT22;4266;48.816;9.154;2023-04-01T11:25:55;12.40;90.90
8459;DHT22;4266;48.816;9.154;2023-04-01T11:31:58;12.40;90.50
8459;DHT22;4266;48.816;9.154;2023-04-01T11:34:16;12.50;90.60
8459;DHT22;4266;48.816;9.154;2023-04-01T11:36:49;12.50;90.60
8459;DHT22;4266;48.816;9.154;2023-04-01T11:39:19;12.80;90.00
8459;DHT22;4266;48.816;9.154;2023-04-01T11:41:51;12.70;89.90
8459;DHT22;4266;48.816;9.154;2023-04-01T11:44:20;13.10;89.80
8459;DHT22;4266;48.816;9.154;2023-04-01T11:49:50;13.50;89.00
8459;DHT22;4266;48.816;9.154;2023-04-01T11:52:25;13.60;89.00
8459;DHT22;4266;48.816;9.154;2023-04-01T11:57:43;13.10;88.60
8459;DHT22;4266;48.816;9.154;2023-04-01T12:01:25;12.90;89.00
8459;DHT22;4266;48.816;9.154;2023-04-01T12:05:39;12.70;90.00
8459;DHT22;4266;48.816;9.154;2023-04-01T12:08:13;12.30;90.10
8459;DHT22;4266;48.816;9.154;2023-04-01T12:10:55;12.20;90.00
8459;DHT22;4266;48.816;9.154;2023-04-01T12:13:24;12.10;90.30
8459;DHT22;4266;48.816;9.154;2023-04-01T12:15:57;12.20;90.90
8459;DHT22;4266;48.816;9.154;2023-04-01T12:18:38;12.10;91.20
8459;DHT22;4266;48.816;9.154;2023-04-01T12:21:17;12.10;91.20
8459;DHT22;4266;48.816;9.154;2023-04-01T12:32:14;12.30;91.70
8459;DHT22;4266;48.816;9.154;2023-04-01T12:34:45;12.30;91.70
8459;DHT22;4266;48.816;9.154;2023-04-01T12:37:31;12.50;91.30
8459;DHT22;4266;48.816;9.154;2023-04-01T12:45:30;12.90;90.00
8459;DHT22;4266;48.816;9.154;2023-04-01T12:48:05;12.90;90.30
8459;DHT22;4266;48.816;9.154;2023-04-01T12:50:51;13.00;89.30
8459;DHT22;4266;48.816;9.154;2023-04-01T12:53:35;12.80;90.00
8459;DHT22;4266;48.816;9.154;2023-04-01T12:55:58;13.20;90.10
8459;DHT22;4266;48.816;9.154;2023-04-01T12:59:33;13.10;89.30
8459;DHT22;4266;48.816;9.154;2023-04-01T13:01:19;13.20;89.70
8459;DHT22;4266;48.816;9.154;2023-04-01T13:04:00;13.20;88.70
8459;DHT22;4266;48.816;9.154;2023-04-01T13:06:25;13.00;88.80
8459;DHT22;4266;48.816;9.154;2023-04-01T13:09:45;12.90;89.50
8459;DHT22;4266;48.816;9.154;2023-04-01T13:17:43;12.50;89.60
8459;DHT22;4266;48.816;9.154;2023-04-01T13:20:16;12.20;90.10
8459;DHT22;4266;48.816;9.154;2023-04-01T13:23:05;12.10;90.20
8459;DHT22;4266;48.816;9.154;2023-04-01T13:25:29;12.10;90.20
8459;DHT22;4266;48.816;9.154;2023-04-01T13:27:56;12.50;90.10
8459;DHT22;4266;48.816;9.154;2023-04-01T13:30:24;12.80;90.20
8459;DHT22;4266;48.816;9.154;2023-04-01T13:32:54;12.90;89.30
8459;DHT22;4266;48.816;9.154;2023-04-01T13:35:25;12.80;89.00
8459;DHT22;4266;48.816;9.154;2023-04-01T13:40:31;13.10;89.20
8459;DHT22;4266;48.816;9.154;2023-04-01T13:43:02;12.90;88.70
8459;DHT22;4266;48.816;9.154;2023-04-01T13:45:38;13.00;88.40
8459;DHT22;4266;48.816;9.154;2023-04-01T13:48:17;12.70;88.20
8459;DHT22;4266;48.816;9.154;2023-04-01T13:51:52;12.70;88.20
8459;DHT22;4266;48.816;9.154;2023-04-01T13:58:58;12.40;88.30
8459;DHT22;4266;48.816;9.154;2023-04-01T14:04:30;12.50;90.10
8459;DHT22;4266;48.816;9.154;2023-04-01T14:06:58;12.50;90.10
8459;DHT22;4266;48.816;9.154;2023-04-01T14:09:43;12.40;90.30
8459;DHT22;4266;48.816;9.154;2023-04-01T14:12:09;12.30;89.80
8459;DHT22;4266;48.816;9.154;2023-04-01T14:20:22;12.50;89.90
8459;DHT22;4266;48.816;9.154;2023-04-01T14:23:12;12.80;90.30
8459;DHT22;4266;48.816;9.154;2023-04-01T14:26:30;12.70;90.40
8459;DHT22;4266;48.816;9.154;2023-04-01T14:29:21;12.30;90.00
8459;DHT22;4266;48.816;9.154;2023-04-01T14:34:16;12.00;90.90
8459;DHT22;4266;48.816;9.154;2023-04-01T14:36:45;12.10;91.50
8459;DHT22;4266;48.816;9.154;2023-04-01T14:39:30;11.90;91.10
8459;DHT22;4266;48.816;9.154;2023-04-01T14:45:13;11.70;91.20
8459;DHT22;4266;48.816;9.154;2023-04-01T14:47:43;11.70;91.70
8459;DHT22;4266;48.816;9.154;2023-04-01T14:50:17;11.50;91.30
8459;DHT22;4266;48.816;9.154;2023-04-01T14:52:54;11.70;91.60
8459;DHT22;4266;48.816;9.154;2023-04-01T14:55:18;11.60;91.50
8459;DHT22;4266;48.816;9.154;2023-04-01T14:57:36;12.00;91.40
8459;DHT22;4266;48.816;9.154;2023-04-01T15:00:18;11.90;91.10
8459;DHT22;4266;48.816;9.154;2023-04-01T15:05:52;11.80;91.00
8459;DHT22;4266;48.816;9.154;2023-04-01T15:08:23;11.80;91.00
8459;DHT22;4266;48.816;9.154;2023-04-01T15:11:04;12.10;91.00
8459;DHT22;4266;48.816;9.154;2023-04-01T15:14:02;12.10;91.00
8459;DHT22;4266;48.816;9.154;2023-04-01T15:22:03;12.10;90.90
8459;DHT22;4266;48.816;9.154;2023-04-01T15:24:39;12.00;90.90
8459;DHT22;4266;48.816;9.154;2023-04-01T15:27:05;12.00;91.10
8459;DHT22;4266;48.816;9.154;2023-04-01T15:29:38;12.00;90.90
8459;DHT22;4266;48.816;9.154;2023-04-01T15:35:08;12.00;91.10
8459;DHT22;4266;48.816;9.154;2023-04-01T15:37:41;11.90;90.80
8459;DHT22;4266;48.816;9.154;2023-04-01T15:40:20;11.70;90.80
8459;DHT22;4266;48.816;9.154;2023-04-01T15:42:51;11.70;90.90
8459;DHT22;4266;48.816;9.154;2023-04-01T15:45:16;11.70;91.10
8459;DHT22;4266;48.816;9.154;2023-04-01T15:47:42;11.60;90.70
8459;DHT22;4266;48.816;9.154;2023-04-01T15:52:57;11.70;91.50
8459;DHT22;4266;48.816;9.154;2023-04-01T15:55:19;11.80;91.00
8459;DHT22;4266;48.816;9.154;2023-04-01T16:00:44;11.70;90.90
8459;DHT22;4266;48.816;9.154;2023-04-01T16:03:33;11.70;90.70
8459;DHT22;4266;48.816;9.154;2023-04-01T16:07:23;11.60;90.60
8459;DHT22;4266;48.816;9.154;2023-04-01T16:14:41;11.20;90.80
8459;DHT22;4266;48.816;9.154;2023-04-01T16:17:16;11.20;90.40
8459;DHT22;4266;48.816;9.154;2023-04-01T16:22:23;11.00;90.60
8459;DHT22;4266;48.816;9.154;2023-04-01T16:24:51;11.00;90.50
8459;DHT22;4266;48.816;9.154;2023-04-01T16:29:50;10.90;90.50
8459;DHT22;4266;48.816;9.154;2023-04-01T16:32:20;10.90;90.50
8459;DHT22;4266;48.816;9.154;2023-04-01T16:34:54;10.90;90.60
8459;DHT22;4266;48.816;9.154;2023-04-01T16:37:15;10.90;90.90
8459;DHT22;4266;48.816;9.154;2023-04-01T16:40:02;10.80;90.70
8459;DHT22;4266;48.816;9.154;2023-04-01T16:42:31;10.80;90.70
8459;DHT22;4266;48.816;9.154;2023-04-01T16:44:56;10.80;90.70
8459;DHT22;4266;48.816;9.154;2023-04-01T16:47:21;10.80;91.00
8459;DHT22;4266;48.816;9.154;2023-04-01T16:49:47;10.80;90.90
8459;DHT22;4266;48.816;9.154;2023-04-01T16:52:14;10.90;90.80
8459;DHT22;4266;48.816;9.154;2023-04-01T16:54:59;10.90;90.80
8459;DHT22;4266;48.816;9.154;2023-04-01T16:57:35;10.90;91.10
8459;DHT22;4266;48.816;9.154;2023-04-01T17:00:00;10.90;91.10
8459;DHT22;4266;48.816;9.154;2023-04-01T17:02:25;11.00;91.30
8459;DHT22;4266;48.816;9.154;2023-04-01T17:05:00;11.00;91.20
8459;DHT22;4266;48.816;9.154;2023-04-01T17:10:32;11.00;91.30
8459;DHT22;4266;48.816;9.154;2023-04-01T17:12:59;10.90;91.50
8459;DHT22;4266;48.816;9.154;2023-04-01T17:17:59;10.80;91.60
8459;DHT22;4266;48.816;9.154;2023-04-01T17:20:42;10.70;91.70
8459;DHT22;4266;48.816;9.154;2023-04-01T17:23:27;10.80;91.80
8459;DHT22;4266;48.816;9.154;2023-04-01T17:26:03;10.80;91.90
8459;DHT22;4266;48.816;9.154;2023-04-01T17:28:32;10.70;92.00
8459;DHT22;4266;48.816;9.154;2023-04-01T17:31:02;10.60;92.00
8459;DHT22;4266;48.816;9.154;2023-04-01T17:33:29;10.70;92.10
8459;DHT22;4266;48.816;9.154;2023-04-01T17:35:56;10.70;92.00
8459;DHT22;4266;48.816;9.154;2023-04-01T17:38:27;10.70;92.00
8459;DHT22;4266;48.816;9.154;2023-04-01T17:41:09;10.70;92.30
8459;DHT22;4266;48.816;9.154;2023-04-01T17:43:45;10.60;92.20
8459;DHT22;4266;48.816;9.154;2023-04-01T17:46:21;10.60;92.30
8459;DHT22;4266;48.816;9.154;2023-04-01T17:49:00;10.60;92.40
8459;DHT22;4266;48.816;9.154;2023-04-01T17:54:05;10.50;92.70
8459;DHT22;4266;48.816;9.154;2023-04-01T17:56:52;10.40;93.80
8459;DHT22;4266;48.816;9.154;2023-04-01T17:59:21;10.40;93.80
8459;DHT22;4266;48.816;9.154;2023-04-01T18:02:02;10.40;94.40
8459;DHT22;4266;48.816;9.154;2023-04-01T18:07:56;10.40;95.90
8459;DHT22;4266;48.816;9.154;2023-04-01T18:10:20;10.20;96.80
8459;DHT22;4266;48.816;9.154;2023-04-01T18:12:56;10.10;97.60
8459;DHT22;4266;48.816;9.154;2023-04-01T18:15:20;10.00;97.50
8459;DHT22;4266;48.816;9.154;2023-04-01T18:21:01;9.90;99.90
8459;DHT22;4266;48.816;9.154;2023-04-01T18:23:46;9.70;99.90
8459;DHT22;4266;48.816;9.154;2023-04-01T18:26:13;9.80;99.90
8459;DHT22;4266;48.816;9.154;2023-04-01T18:28:40;9.70;99.90
8459;DHT22;4266;48.816;9.154;2023-04-01T18:31:06;9.70;99.90
8459;DHT22;4266;48.816;9.154;2023-04-01T18:33:34;9.60;99.90
8459;DHT22;4266;48.816;9.154;2023-04-01T18:36:18;9.60;99.90
8459;DHT22;4266;48.816;9.154;2023-04-01T18:38:45;9.60;99.90
8459;DHT22;4266;48.816;9.154;2023-04-01T18:41:26;9.50;99.90
8459;DHT22;4266;48.816;9.154;2023-04-01T18:44:03;9.30;99.90
8459;DHT22;4266;48.816;9.154;2023-04-01T18:49:29;9.10;99.90
8459;DHT22;4266;48.816;9.154;2023-04-01T18:51:57;9.10;99.90
8459;DHT22;4266;48.816;9.154;2023-04-01T18:54:27;9.10;99.90
8459;DHT22;4266;48.816;9.154;2023-04-01T18:56:59;8.90;99.90
8459;DHT22;4266;48.816;9.154;2023-04-01T18:59:24;8.80;99.90
8459;DHT22;4266;48.816;9.154;2023-04-01T19:02:07;8.90;99.90
8459;DHT22;4266;48.816;9.154;2023-04-01T19:04:35;8.70;99.90
8459;DHT22;4266;48.816;9.154;2023-04-01T19:06:59;8.70;99.90
8459;DHT22;4266;48.816;9.154;2023-04-01T19:09:26;8.50;99.90
8459;DHT22;4266;48.816;9.154;2023-04-01T19:14:39;8.40;99.90
8459;DHT22;4266;48.816;9.154;2023-04-01T19:17:05;8.30;99.90
8459;DHT22;4266;48.816;9.154;2023-04-01T19:19:39;8.30;99.90
8459;DHT22;4266;48.816;9.154;2023-04-01T19:22:04;8.20;99.90
8459;DHT22;4266;48.816;9.154;2023-04-01T19:29:54;8.00;99.90
8459;DHT22;4266;48.816;9.154;2023-04-01T19:32:43;8.00;99.90
8459;DHT22;4266;48.816;9.154;2023-04-01T19:38:30;8.00;99.90
8459;DHT22;4266;48.816;9.154;2023-04-01T19:41:17;8.00;99.90
8459;DHT22;4266;48.816;9.154;2023-04-01T19:49:12;8.10;99.90
8459;DHT22;4266;48.816;9.154;2023-04-01T19:51:48;8.10;99.90
8459;DHT22;4266;48.816;9.154;2023-04-01T19:54:18;8.10;99.90
8459;DHT22;4266;48.816;9.154;2023-04-01T19:56:42;8.00;99.90